Lewistown, MT

6:31 AM MDT on September 21, 2014 (GMT -0600)
3/4 mile S of Lewistown | Change Station
CLOSE
Current Station
Personal Weather Station
Location: Lewistown, Mt
Elevation: 4189 ft
Nearby Weather Stations

Elev 4189 ft 47.04 °N, 109.42 °W | Updated 3 seconds ago

Clear
Clear
42.5 °F
Feels Like 37 °F
N
10.0
Wind Variable Wind from SE
Gusts 12.0 mph

Today
High -- | Low -- °F
--% Chance of Precip.
Yesterday
High -- | Low -- °F
Precip. -- in
7:03 AM 7:17 PM
Waning Crescent, 7% visible
Pressure 30.23 in
Visibility 10.0 miles
Clouds Clear
Windchill 37 °F
Dew Point 38 °F
Humidity 84%
Rainfall 0.00 in
Snow Depth 1 in , 1 in , 0 in
UV 0 out of 12
Pollen 6.70 out of 12
Air Quality Not available.
Flu Activity Not available.
METAR KLWT 211154Z AUTO 13007KT 10SM CLR 08/03 A3029 RMK AO2 SLP237 T00830033 10106 20078 56003 $

More Conditions Fewer Conditions

Pressure 30.23 in
Visibility 10.0 miles
Clouds Clear
Windchill 37 °F
Dew Point 38 °F
Humidity 84%
Rainfall 0.00 in
Snow Depth 1 in , 1 in , 0 in
UV 0 out of 12
Pollen 6.70 out of 12
Air Quality Not available.
Flu Activity Not available.
METAR KLWT 211154Z AUTO 13007KT 10SM CLR 08/03 A3029 RMK AO2 SLP237 T00830033 10106 20078 56003 $

More Conditions Fewer Conditions

10-Day Weather Forecast

Almanac

Astronomy

Sep. 21, 2014 Rise Set
Actual Time 7:03 AM MDT 7:17 PM MDT
Civil Twilight 6:32 AM MDT 7:47 PM MDT
Nautical Twilight 5:56 AM MDT 8:23 PM MDT
Astronomical Twilight 5:19 AM MDT 9:00 PM MDT
Moon 4:32 AM MDT 6:00 PM MDT
Length of Visible Light 13h 14m
Length of Day
12h 13m
Tomorrow will be 3m 21s shorter.
Waning Crescent, 7% of the Moon is Illuminated
Today
Waning Crescent
Sep 24
New
Oct 1
First Quarter
Oct 8
Full
Oct 15
Last Quarter

Today's Extremes

State Highs State Lows

Community

WunderPhotos

Upload Photos

1,755,127 photos uploaded!

Nearby

Snow Depth

Station Depth Elevation
Brackett Creek 1 in 7320 ft
Badger Pass 1 in 6900 ft
Monument Peak 0 in 8850 ft
Stringer Creek 0 in 6550 ft
Twelvemile Creek 0 in 5600 ft

Earthquake Activity

City Distance Mag. Time & Date
No recent earthquake activity has been reported nearby.
Minimum magnitude displayed is 2.5.

Coastal Water Temperatures

Place Temperature
No Stations Reporting

Nearby Weather Stations